sensor_id;sensor_type;location;lat;lon;timestamp;P1;durP1;ratioP1;P2;durP2;ratioP2
48522;SDS011;34315;50.150;11.070;2024-02-26T00:02:37;8.43;;;3.90;;
48522;SDS011;34315;50.150;11.070;2024-02-26T00:07:38;9.35;;;3.35;;
48522;SDS011;34315;50.150;11.070;2024-02-26T00:12:39;7.03;;;3.50;;
48522;SDS011;34315;50.150;11.070;2024-02-26T00:17:40;7.55;;;3.83;;
48522;SDS011;34315;50.150;11.070;2024-02-26T00:22:41;6.00;;;3.30;;
48522;SDS011;34315;50.150;11.070;2024-02-26T00:27:43;6.47;;;2.92;;
48522;SDS011;34315;50.150;11.070;2024-02-26T00:32:44;7.03;;;3.75;;
48522;SDS011;34315;50.150;11.070;2024-02-26T00:37:46;7.30;;;3.63;;
48522;SDS011;34315;50.150;11.070;2024-02-26T00:42:47;7.18;;;3.45;;
48522;SDS011;34315;50.150;11.070;2024-02-26T00:47:49;8.18;;;3.55;;
48522;SDS011;34315;50.150;11.070;2024-02-26T00:52:51;7.00;;;3.35;;
48522;SDS011;34315;50.150;11.070;2024-02-26T00:57:53;7.15;;;3.60;;
48522;SDS011;34315;50.150;11.070;2024-02-26T01:02:54;7.65;;;3.80;;
48522;SDS011;34315;50.150;11.070;2024-02-26T01:07:55;5.15;;;2.72;;
48522;SDS011;34315;50.150;11.070;2024-02-26T01:12:57;5.40;;;2.97;;
48522;SDS011;34315;50.150;11.070;2024-02-26T01:17:58;7.00;;;3.30;;
48522;SDS011;34315;50.150;11.070;2024-02-26T01:22:59;7.57;;;3.28;;
48522;SDS011;34315;50.150;11.070;2024-02-26T01:28:00;7.72;;;3.50;;
48522;SDS011;34315;50.150;11.070;2024-02-26T01:33:01;6.32;;;3.42;;
48522;SDS011;34315;50.150;11.070;2024-02-26T01:38:02;6.28;;;3.25;;
48522;SDS011;34315;50.150;11.070;2024-02-26T01:43:03;6.30;;;3.00;;
48522;SDS011;34315;50.150;11.070;2024-02-26T01:48:04;8.50;;;3.60;;
48522;SDS011;34315;50.150;11.070;2024-02-26T01:53:06;6.68;;;3.13;;
48522;SDS011;34315;50.150;11.070;2024-02-26T01:58:07;7.05;;;3.42;;
48522;SDS011;34315;50.150;11.070;2024-02-26T02:03:09;6.90;;;3.60;;
48522;SDS011;34315;50.150;11.070;2024-02-26T02:08:10;5.90;;;2.88;;
48522;SDS011;34315;50.150;11.070;2024-02-26T02:13:20;5.60;;;3.08;;
48522;SDS011;34315;50.150;11.070;2024-02-26T02:18:21;6.22;;;3.38;;
48522;SDS011;34315;50.150;11.070;2024-02-26T02:23:23;4.90;;;2.55;;
48522;SDS011;34315;50.150;11.070;2024-02-26T02:28:25;6.60;;;2.80;;
48522;SDS011;34315;50.150;11.070;2024-02-26T02:33:26;7.93;;;3.22;;
48522;SDS011;34315;50.150;11.070;2024-02-26T02:38:27;6.22;;;3.35;;
48522;SDS011;34315;50.150;11.070;2024-02-26T02:43:30;7.07;;;3.13;;
48522;SDS011;34315;50.150;11.070;2024-02-26T02:48:31;6.90;;;3.20;;
48522;SDS011;34315;50.150;11.070;2024-02-26T02:53:32;6.80;;;2.97;;
48522;SDS011;34315;50.150;11.070;2024-02-26T02:58:34;8.45;;;3.55;;
48522;SDS011;34315;50.150;11.070;2024-02-26T03:03:35;7.85;;;3.33;;
48522;SDS011;34315;50.150;11.070;2024-02-26T03:08:37;6.05;;;3.47;;
48522;SDS011;34315;50.150;11.070;2024-02-26T03:13:40;6.28;;;3.05;;
48522;SDS011;34315;50.150;11.070;2024-02-26T03:18:41;6.38;;;3.28;;
48522;SDS011;34315;50.150;11.070;2024-02-26T03:23:42;6.10;;;3.00;;
48522;SDS011;34315;50.150;11.070;2024-02-26T03:28:43;6.88;;;3.20;;
48522;SDS011;34315;50.150;11.070;2024-02-26T03:33:45;6.97;;;2.80;;
48522;SDS011;34315;50.150;11.070;2024-02-26T03:38:46;6.57;;;3.70;;
48522;SDS011;34315;50.150;11.070;2024-02-26T03:43:47;6.80;;;3.47;;
48522;SDS011;34315;50.150;11.070;2024-02-26T03:48:49;6.82;;;3.35;;
48522;SDS011;34315;50.150;11.070;2024-02-26T03:53:50;5.65;;;3.42;;
48522;SDS011;34315;50.150;11.070;2024-02-26T03:58:51;7.85;;;3.35;;
48522;SDS011;34315;50.150;11.070;2024-02-26T04:03:52;6.78;;;3.67;;
48522;SDS011;34315;50.150;11.070;2024-02-26T04:08:54;7.13;;;3.90;;
48522;SDS011;34315;50.150;11.070;2024-02-26T04:13:55;6.80;;;3.83;;
48522;SDS011;34315;50.150;11.070;2024-02-26T04:18:56;6.90;;;3.80;;
48522;SDS011;34315;50.150;11.070;2024-02-26T04:24:01;7.00;;;3.63;;
48522;SDS011;34315;50.150;11.070;2024-02-26T04:29:02;9.57;;;3.83;;
48522;SDS011;34315;50.150;11.070;2024-02-26T04:34:03;7.15;;;3.67;;
48522;SDS011;34315;50.150;11.070;2024-02-26T04:39:04;6.70;;;3.45;;
48522;SDS011;34315;50.150;11.070;2024-02-26T04:44:05;8.63;;;3.50;;
48522;SDS011;34315;50.150;11.070;2024-02-26T04:49:07;7.15;;;3.30;;
48522;SDS011;34315;50.150;11.070;2024-02-26T04:54:08;6.65;;;3.38;;
48522;SDS011;34315;50.150;11.070;2024-02-26T04:59:09;9.88;;;4.28;;
48522;SDS011;34315;50.150;11.070;2024-02-26T05:04:10;7.55;;;3.50;;
48522;SDS011;34315;50.150;11.070;2024-02-26T05:09:12;8.90;;;3.75;;
48522;SDS011;34315;50.150;11.070;2024-02-26T05:14:13;6.85;;;3.60;;
48522;SDS011;34315;50.150;11.070;2024-02-26T05:19:14;7.82;;;3.53;;
48522;SDS011;34315;50.150;11.070;2024-02-26T05:24:15;7.88;;;4.43;;
48522;SDS011;34315;50.150;11.070;2024-02-26T05:29:17;8.52;;;4.70;;
48522;SDS011;34315;50.150;11.070;2024-02-26T05:34:18;8.20;;;4.15;;
48522;SDS011;34315;50.150;11.070;2024-02-26T05:39:20;7.03;;;3.72;;
48522;SDS011;34315;50.150;11.070;2024-02-26T05:44:22;9.65;;;4.05;;
48522;SDS011;34315;50.150;11.070;2024-02-26T05:49:23;9.43;;;4.90;;
48522;SDS011;34315;50.150;11.070;2024-02-26T05:54:25;8.43;;;3.83;;
48522;SDS011;34315;50.150;11.070;2024-02-26T05:59:26;6.70;;;3.97;;
48522;SDS011;34315;50.150;11.070;2024-02-26T06:04:27;6.38;;;3.67;;
48522;SDS011;34315;50.150;11.070;2024-02-26T06:09:28;7.95;;;4.00;;
48522;SDS011;34315;50.150;11.070;2024-02-26T06:14:29;7.82;;;4.18;;
48522;SDS011;34315;50.150;11.070;2024-02-26T06:19:30;10.48;;;4.88;;
48522;SDS011;34315;50.150;11.070;2024-02-26T06:24:31;9.43;;;4.20;;
48522;SDS011;34315;50.150;11.070;2024-02-26T06:29:32;11.95;;;5.15;;
48522;SDS011;34315;50.150;11.070;2024-02-26T06:34:34;11.07;;;5.18;;
48522;SDS011;34315;50.150;11.070;2024-02-26T06:39:35;10.48;;;5.28;;
48522;SDS011;34315;50.150;11.070;2024-02-26T06:44:36;8.88;;;4.75;;
48522;SDS011;34315;50.150;11.070;2024-02-26T06:49:37;9.45;;;4.70;;
48522;SDS011;34315;50.150;11.070;2024-02-26T06:54:38;7.80;;;4.70;;
48522;SDS011;34315;50.150;11.070;2024-02-26T06:59:40;8.23;;;4.43;;
48522;SDS011;34315;50.150;11.070;2024-02-26T07:04:41;10.10;;;4.95;;
48522;SDS011;34315;50.150;11.070;2024-02-26T07:09:42;7.72;;;4.43;;
48522;SDS011;34315;50.150;11.070;2024-02-26T07:14:43;10.27;;;5.47;;
48522;SDS011;34315;50.150;11.070;2024-02-26T07:19:45;14.02;;;5.28;;
48522;SDS011;34315;50.150;11.070;2024-02-26T07:24:46;11.00;;;5.43;;
48522;SDS011;34315;50.150;11.070;2024-02-26T07:29:47;9.98;;;4.85;;
48522;SDS011;34315;50.150;11.070;2024-02-26T07:34:48;10.43;;;4.82;;
48522;SDS011;34315;50.150;11.070;2024-02-26T07:39:49;11.20;;;6.05;;
48522;SDS011;34315;50.150;11.070;2024-02-26T07:44:50;10.82;;;5.47;;
48522;SDS011;34315;50.150;11.070;2024-02-26T07:49:51;9.40;;;5.32;;
48522;SDS011;34315;50.150;11.070;2024-02-26T07:54:52;11.02;;;6.18;;
48522;SDS011;34315;50.150;11.070;2024-02-26T07:59:53;8.50;;;5.18;;
48522;SDS011;34315;50.150;11.070;2024-02-26T08:04:55;12.32;;;6.03;;
48522;SDS011;34315;50.150;11.070;2024-02-26T08:09:56;11.05;;;6.03;;
48522;SDS011;34315;50.150;11.070;2024-02-26T08:14:57;11.32;;;6.07;;
48522;SDS011;34315;50.150;11.070;2024-02-26T08:19:59;12.35;;;6.13;;
48522;SDS011;34315;50.150;11.070;2024-02-26T08:25:00;10.23;;;6.05;;
48522;SDS011;34315;50.150;11.070;2024-02-26T08:35:07;12.25;;;6.80;;
48522;SDS011;34315;50.150;11.070;2024-02-26T08:40:09;12.05;;;6.65;;
48522;SDS011;34315;50.150;11.070;2024-02-26T08:45:11;14.27;;;6.18;;
48522;SDS011;34315;50.150;11.070;2024-02-26T08:50:13;11.32;;;5.85;;
48522;SDS011;34315;50.150;11.070;2024-02-26T08:55:14;11.73;;;5.72;;
48522;SDS011;34315;50.150;11.070;2024-02-26T09:00:16;10.18;;;5.57;;
48522;SDS011;34315;50.150;11.070;2024-02-26T09:05:18;9.60;;;5.10;;
48522;SDS011;34315;50.150;11.070;2024-02-26T09:10:19;11.20;;;5.50;;
48522;SDS011;34315;50.150;11.070;2024-02-26T09:15:20;10.10;;;5.55;;
48522;SDS011;34315;50.150;11.070;2024-02-26T09:20:21;11.30;;;6.25;;
48522;SDS011;34315;50.150;11.070;2024-02-26T09:25:24;15.77;;;7.93;;
48522;SDS011;34315;50.150;11.070;2024-02-26T09:30:25;13.80;;;5.75;;
48522;SDS011;34315;50.150;11.070;2024-02-26T09:35:26;9.48;;;5.22;;
48522;SDS011;34315;50.150;11.070;2024-02-26T09:40:27;9.55;;;5.28;;
48522;SDS011;34315;50.150;11.070;2024-02-26T09:45:28;9.60;;;5.47;;
48522;SDS011;34315;50.150;11.070;2024-02-26T09:50:31;10.93;;;6.15;;
48522;SDS011;34315;50.150;11.070;2024-02-26T09:55:32;10.30;;;5.70;;
48522;SDS011;34315;50.150;11.070;2024-02-26T10:00:36;10.02;;;5.57;;
48522;SDS011;34315;50.150;11.070;2024-02-26T10:05:38;10.83;;;5.53;;
48522;SDS011;34315;50.150;11.070;2024-02-26T10:10:39;10.68;;;5.15;;
48522;SDS011;34315;50.150;11.070;2024-02-26T10:15:40;10.10;;;4.72;;
48522;SDS011;34315;50.150;11.070;2024-02-26T10:20:41;10.00;;;5.22;;
48522;SDS011;34315;50.150;11.070;2024-02-26T10:25:52;9.85;;;5.63;;
48522;SDS011;34315;50.150;11.070;2024-02-26T10:30:54;11.00;;;5.05;;
48522;SDS011;34315;50.150;11.070;2024-02-26T10:35:55;10.45;;;6.10;;
48522;SDS011;34315;50.150;11.070;2024-02-26T10:40:56;9.32;;;5.53;;
48522;SDS011;34315;50.150;11.070;2024-02-26T10:45:57;9.75;;;5.20;;
48522;SDS011;34315;50.150;11.070;2024-02-26T10:50:59;11.15;;;5.78;;
48522;SDS011;34315;50.150;11.070;2024-02-26T10:56:03;11.05;;;5.65;;
48522;SDS011;34315;50.150;11.070;2024-02-26T11:01:08;10.30;;;5.35;;
48522;SDS011;34315;50.150;11.070;2024-02-26T11:06:09;9.00;;;5.07;;
48522;SDS011;34315;50.150;11.070;2024-02-26T11:11:11;10.35;;;5.35;;
48522;SDS011;34315;50.150;11.070;2024-02-26T11:16:19;9.77;;;5.35;;
48522;SDS011;34315;50.150;11.070;2024-02-26T11:21:21;9.13;;;5.30;;
48522;SDS011;34315;50.150;11.070;2024-02-26T11:26:30;8.98;;;5.13;;
48522;SDS011;34315;50.150;11.070;2024-02-26T11:31:32;10.00;;;5.55;;
48522;SDS011;34315;50.150;11.070;2024-02-26T11:36:33;8.52;;;4.85;;
48522;SDS011;34315;50.150;11.070;2024-02-26T11:41:34;6.45;;;4.25;;
48522;SDS011;34315;50.150;11.070;2024-02-26T11:46:40;6.72;;;4.10;;
48522;SDS011;34315;50.150;11.070;2024-02-26T11:51:43;6.88;;;4.15;;
48522;SDS011;34315;50.150;11.070;2024-02-26T11:56:44;5.85;;;3.53;;
48522;SDS011;34315;50.150;11.070;2024-02-26T12:01:47;6.45;;;3.60;;
48522;SDS011;34315;50.150;11.070;2024-02-26T12:06:52;7.10;;;3.75;;
48522;SDS011;34315;50.150;11.070;2024-02-26T12:11:56;6.40;;;3.65;;
48522;SDS011;34315;50.150;11.070;2024-02-26T12:16:57;6.80;;;3.33;;
48522;SDS011;34315;50.150;11.070;2024-02-26T12:21:59;7.72;;;3.97;;
48522;SDS011;34315;50.150;11.070;2024-02-26T12:27:00;7.43;;;3.58;;
48522;SDS011;34315;50.150;11.070;2024-02-26T12:32:02;7.95;;;3.22;;
48522;SDS011;34315;50.150;11.070;2024-02-26T12:37:04;6.07;;;3.55;;
48522;SDS011;34315;50.150;11.070;2024-02-26T12:42:05;6.80;;;3.22;;
48522;SDS011;34315;50.150;11.070;2024-02-26T12:47:07;8.18;;;3.80;;
48522;SDS011;34315;50.150;11.070;2024-02-26T12:52:08;6.93;;;3.25;;
48522;SDS011;34315;50.150;11.070;2024-02-26T12:57:10;5.88;;;3.38;;
48522;SDS011;34315;50.150;11.070;2024-02-26T13:02:11;5.88;;;3.13;;
48522;SDS011;34315;50.150;11.070;2024-02-26T13:07:12;5.95;;;3.13;;
48522;SDS011;34315;50.150;11.070;2024-02-26T13:12:14;6.90;;;3.38;;
48522;SDS011;34315;50.150;11.070;2024-02-26T13:17:20;5.25;;;3.10;;
48522;SDS011;34315;50.150;11.070;2024-02-26T13:22:23;5.50;;;3.00;;
48522;SDS011;34315;50.150;11.070;2024-02-26T13:27:24;5.70;;;2.88;;
48522;SDS011;34315;50.150;11.070;2024-02-26T13:32:26;5.03;;;2.85;;
48522;SDS011;34315;50.150;11.070;2024-02-26T13:37:31;4.32;;;2.83;;
48522;SDS011;34315;50.150;11.070;2024-02-26T13:42:33;5.47;;;2.70;;
48522;SDS011;34315;50.150;11.070;2024-02-26T13:47:34;4.68;;;2.50;;
48522;SDS011;34315;50.150;11.070;2024-02-26T13:52:35;8.10;;;2.63;;
48522;SDS011;34315;50.150;11.070;2024-02-26T13:57:36;5.07;;;2.13;;
48522;SDS011;34315;50.150;11.070;2024-02-26T14:02:37;3.90;;;2.08;;
48522;SDS011;34315;50.150;11.070;2024-02-26T14:07:39;5.95;;;2.50;;
48522;SDS011;34315;50.150;11.070;2024-02-26T14:12:40;4.13;;;1.90;;
48522;SDS011;34315;50.150;11.070;2024-02-26T14:17:41;4.07;;;2.00;;
48522;SDS011;34315;50.150;11.070;2024-02-26T14:22:43;4.25;;;2.83;;
48522;SDS011;34315;50.150;11.070;2024-02-26T14:27:45;4.90;;;2.47;;
48522;SDS011;34315;50.150;11.070;2024-02-26T14:32:46;5.70;;;2.58;;
48522;SDS011;34315;50.150;11.070;2024-02-26T14:37:47;6.60;;;2.75;;
48522;SDS011;34315;50.150;11.070;2024-02-26T14:42:49;5.20;;;2.97;;
48522;SDS011;34315;50.150;11.070;2024-02-26T14:47:51;5.50;;;2.95;;
48522;SDS011;34315;50.150;11.070;2024-02-26T14:52:52;5.93;;;3.17;;
48522;SDS011;34315;50.150;11.070;2024-02-26T14:57:53;5.30;;;3.42;;
48522;SDS011;34315;50.150;11.070;2024-02-26T15:02:54;4.70;;;3.00;;
48522;SDS011;34315;50.150;11.070;2024-02-26T15:07:55;6.72;;;3.20;;
48522;SDS011;34315;50.150;11.070;2024-02-26T15:12:56;6.20;;;3.55;;
48522;SDS011;34315;50.150;11.070;2024-02-26T15:17:57;6.15;;;3.22;;
48522;SDS011;34315;50.150;11.070;2024-02-26T15:22:58;6.07;;;2.95;;
48522;SDS011;34315;50.150;11.070;2024-02-26T15:28:00;6.78;;;3.42;;
48522;SDS011;34315;50.150;11.070;2024-02-26T15:33:01;5.35;;;3.15;;
48522;SDS011;34315;50.150;11.070;2024-02-26T15:38:02;4.70;;;2.80;;
48522;SDS011;34315;50.150;11.070;2024-02-26T15:43:03;6.40;;;3.30;;
48522;SDS011;34315;50.150;11.070;2024-02-26T15:48:05;14.57;;;4.80;;
48522;SDS011;34315;50.150;11.070;2024-02-26T15:53:06;5.93;;;3.30;;
48522;SDS011;34315;50.150;11.070;2024-02-26T15:58:08;6.10;;;3.03;;
48522;SDS011;34315;50.150;11.070;2024-02-26T16:03:10;6.32;;;3.60;;
48522;SDS011;34315;50.150;11.070;2024-02-26T16:08:16;7.43;;;4.07;;
48522;SDS011;34315;50.150;11.070;2024-02-26T16:13:21;6.85;;;4.03;;
48522;SDS011;34315;50.150;11.070;2024-02-26T16:18:22;11.43;;;4.18;;
48522;SDS011;34315;50.150;11.070;2024-02-26T16:23:23;9.20;;;4.50;;
48522;SDS011;34315;50.150;11.070;2024-02-26T16:28:24;9.95;;;5.00;;
48522;SDS011;34315;50.150;11.070;2024-02-26T16:33:26;11.10;;;5.65;;
48522;SDS011;34315;50.150;11.070;2024-02-26T16:38:27;15.52;;;7.90;;
48522;SDS011;34315;50.150;11.070;2024-02-26T16:43:29;13.02;;;6.60;;
48522;SDS011;34315;50.150;11.070;2024-02-26T16:48:35;8.82;;;5.38;;
48522;SDS011;34315;50.150;11.070;2024-02-26T16:53:37;12.77;;;5.43;;
48522;SDS011;34315;50.150;11.070;2024-02-26T16:58:38;14.50;;;6.40;;
48522;SDS011;34315;50.150;11.070;2024-02-26T17:03:39;12.25;;;7.40;;
48522;SDS011;34315;50.150;11.070;2024-02-26T17:08:40;19.95;;;9.40;;
48522;SDS011;34315;50.150;11.070;2024-02-26T17:13:42;17.02;;;8.73;;
48522;SDS011;34315;50.150;11.070;2024-02-26T17:18:43;14.00;;;8.27;;
48522;SDS011;34315;50.150;11.070;2024-02-26T17:23:44;15.45;;;7.72;;
48522;SDS011;34315;50.150;11.070;2024-02-26T17:28:45;13.40;;;6.57;;
48522;SDS011;34315;50.150;11.070;2024-02-26T17:33:47;12.75;;;5.68;;
48522;SDS011;34315;50.150;11.070;2024-02-26T17:38:49;9.18;;;5.13;;
48522;SDS011;34315;50.150;11.070;2024-02-26T17:43:51;12.10;;;5.63;;
48522;SDS011;34315;50.150;11.070;2024-02-26T17:48:52;15.48;;;7.95;;
48522;SDS011;34315;50.150;11.070;2024-02-26T17:53:53;15.93;;;8.85;;
48522;SDS011;34315;50.150;11.070;2024-02-26T17:58:54;16.83;;;10.48;;
48522;SDS011;34315;50.150;11.070;2024-02-26T18:03:55;55.15;;;36.50;;
48522;SDS011;34315;50.150;11.070;2024-02-26T18:08:56;16.10;;;9.80;;
48522;SDS011;34315;50.150;11.070;2024-02-26T18:13:57;14.15;;;7.60;;
48522;SDS011;34315;50.150;11.070;2024-02-26T18:18:58;14.50;;;8.10;;
48522;SDS011;34315;50.150;11.070;2024-02-26T18:24:00;14.65;;;8.10;;
48522;SDS011;34315;50.150;11.070;2024-02-26T18:29:01;16.15;;;8.85;;
48522;SDS011;34315;50.150;11.070;2024-02-26T18:34:02;14.45;;;7.63;;
48522;SDS011;34315;50.150;11.070;2024-02-26T18:39:03;14.07;;;8.15;;
48522;SDS011;34315;50.150;11.070;2024-02-26T18:44:04;14.43;;;7.50;;
48522;SDS011;34315;50.150;11.070;2024-02-26T18:49:06;15.85;;;9.10;;
48522;SDS011;34315;50.150;11.070;2024-02-26T18:54:08;14.98;;;9.32;;
48522;SDS011;34315;50.150;11.070;2024-02-26T18:59:09;14.20;;;8.50;;
48522;SDS011;34315;50.150;11.070;2024-02-26T19:04:15;13.75;;;7.22;;
48522;SDS011;34315;50.150;11.070;2024-02-26T19:09:16;13.45;;;7.82;;
48522;SDS011;34315;50.150;11.070;2024-02-26T19:14:17;14.52;;;8.10;;
48522;SDS011;34315;50.150;11.070;2024-02-26T19:19:19;17.00;;;8.38;;
48522;SDS011;34315;50.150;11.070;2024-02-26T19:24:20;15.65;;;9.30;;
48522;SDS011;34315;50.150;11.070;2024-02-26T19:29:21;18.88;;;10.10;;
48522;SDS011;34315;50.150;11.070;2024-02-26T19:34:22;19.42;;;10.48;;
48522;SDS011;34315;50.150;11.070;2024-02-26T19:39:23;16.67;;;10.15;;
48522;SDS011;34315;50.150;11.070;2024-02-26T19:44:24;18.88;;;9.50;;
48522;SDS011;34315;50.150;11.070;2024-02-26T19:49:25;20.45;;;10.30;;
48522;SDS011;34315;50.150;11.070;2024-02-26T19:54:26;20.85;;;10.43;;
48522;SDS011;34315;50.150;11.070;2024-02-26T19:59:27;18.35;;;10.20;;
48522;SDS011;34315;50.150;11.070;2024-02-26T20:04:28;20.95;;;10.68;;
48522;SDS011;34315;50.150;11.070;2024-02-26T20:09:31;20.38;;;11.88;;
48522;SDS011;34315;50.150;11.070;2024-02-26T20:14:32;29.23;;;12.60;;
48522;SDS011;34315;50.150;11.070;2024-02-26T20:19:35;27.38;;;14.18;;
48522;SDS011;34315;50.150;11.070;2024-02-26T20:24:36;25.70;;;13.88;;
48522;SDS011;34315;50.150;11.070;2024-02-26T20:29:38;20.63;;;12.80;;
48522;SDS011;34315;50.150;11.070;2024-02-26T20:34:39;19.60;;;11.52;;
48522;SDS011;34315;50.150;11.070;2024-02-26T20:39:41;19.17;;;11.43;;
48522;SDS011;34315;50.150;11.070;2024-02-26T20:44:42;19.42;;;10.50;;
48522;SDS011;34315;50.150;11.070;2024-02-26T20:49:43;19.63;;;10.48;;
48522;SDS011;34315;50.150;11.070;2024-02-26T20:54:44;17.98;;;10.73;;
48522;SDS011;34315;50.150;11.070;2024-02-26T20:59:45;16.13;;;10.10;;
48522;SDS011;34315;50.150;11.070;2024-02-26T21:04:46;20.13;;;10.52;;
48522;SDS011;34315;50.150;11.070;2024-02-26T21:09:48;19.88;;;11.00;;
48522;SDS011;34315;50.150;11.070;2024-02-26T21:14:49;18.92;;;10.30;;
48522;SDS011;34315;50.150;11.070;2024-02-26T21:19:50;17.83;;;9.90;;
48522;SDS011;34315;50.150;11.070;2024-02-26T21:24:52;17.50;;;10.75;;
48522;SDS011;34315;50.150;11.070;2024-02-26T21:29:53;17.92;;;11.35;;
48522;SDS011;34315;50.150;11.070;2024-02-26T21:34:54;18.35;;;10.75;;
48522;SDS011;34315;50.150;11.070;2024-02-26T21:39:55;17.65;;;11.00;;
48522;SDS011;34315;50.150;11.070;2024-02-26T21:44:56;21.33;;;11.23;;
48522;SDS011;34315;50.150;11.070;2024-02-26T21:49:58;21.90;;;10.65;;
48522;SDS011;34315;50.150;11.070;2024-02-26T21:55:00;15.43;;;9.02;;
48522;SDS011;34315;50.150;11.070;2024-02-26T22:00:01;17.80;;;9.75;;
48522;SDS011;34315;50.150;11.070;2024-02-26T22:05:02;17.58;;;9.85;;
48522;SDS011;34315;50.150;11.070;2024-02-26T22:10:03;19.33;;;10.43;;
48522;SDS011;34315;50.150;11.070;2024-02-26T22:15:05;15.35;;;9.15;;
48522;SDS011;34315;50.150;11.070;2024-02-26T22:20:08;15.38;;;8.98;;
48522;SDS011;34315;50.150;11.070;2024-02-26T22:25:10;18.15;;;9.43;;
48522;SDS011;34315;50.150;11.070;2024-02-26T22:30:11;18.23;;;9.45;;
48522;SDS011;34315;50.150;11.070;2024-02-26T22:35:12;17.00;;;8.98;;
48522;SDS011;34315;50.150;11.070;2024-02-26T22:40:13;17.75;;;10.13;;
48522;SDS011;34315;50.150;11.070;2024-02-26T22:45:14;17.70;;;9.35;;
48522;SDS011;34315;50.150;11.070;2024-02-26T22:50:16;17.30;;;9.68;;
48522;SDS011;34315;50.150;11.070;2024-02-26T22:55:17;20.52;;;10.93;;
48522;SDS011;34315;50.150;11.070;2024-02-26T23:00:19;18.00;;;9.90;;
48522;SDS011;34315;50.150;11.070;2024-02-26T23:05:46;18.05;;;10.15;;
48522;SDS011;34315;50.150;11.070;2024-02-26T23:10:47;18.30;;;9.80;;
48522;SDS011;34315;50.150;11.070;2024-02-26T23:15:49;19.88;;;9.90;;
48522;SDS011;34315;50.150;11.070;2024-02-26T23:20:53;17.08;;;9.50;;
48522;SDS011;34315;50.150;11.070;2024-02-26T23:25:54;16.45;;;9.13;;
48522;SDS011;34315;50.150;11.070;2024-02-26T23:30:55;17.13;;;10.05;;
48522;SDS011;34315;50.150;11.070;2024-02-26T23:35:57;19.52;;;10.30;;
48522;SDS011;34315;50.150;11.070;2024-02-26T23:40:58;17.63;;;9.57;;
48522;SDS011;34315;50.150;11.070;2024-02-26T23:45:59;17.13;;;9.52;;
48522;SDS011;34315;50.150;11.070;2024-02-26T23:51:00;16.70;;;8.98;;
48522;SDS011;34315;50.150;11.070;2024-02-26T23:56:02;16.52;;;8.60;;
